Terminal Aerodrome Forecast
Issued by NWS Blacksburg, VA

Current Version | Previous Version | Graphics & Text | Print | Product List | Glossary On
Versions: 1 2 3 4 5 6 7 8 9 10 11 12 13 14 15 16 17 18 19 20 21 22 23 24 25 26 27 28 29 30 31 32 33 34 35 36 37 38 39 40 41 42 43 44 45 46 47 48 49 50
000
FTUS41 KRNK 212337
TAFBLF
TAF
KBLF 212337Z 2200/2224 28010G20KT P6SM VCSH SCT015 BKN035 OVC070
      TEMPO 2200/2201 28015G25KT 1SM +TSRA BR SCT007 OVC015CB
     FM220100 29010G18KT P6SM BKN035 BKN070
     FM220400 29008KT P6SM OVC012
     FM221400 31010G18KT P6SM OVC015
     FM222000 32007KT P6SM BKN025=

USA.gov is the U.S. government's official web portal to all federal, state and local government web resources and services.